createdAt,value
2023-01-13T00:00:48.144Z,47.70
2023-01-13T00:01:48.118Z,48.18
2023-01-13T00:02:48.070Z,50.11
2023-01-13T00:03:48.052Z,49.15
2023-01-13T00:04:48.050Z,49.47
2023-01-13T00:05:48.038Z,49.95
2023-01-13T00:06:48.051Z,49.47
2023-01-13T00:07:48.364Z,48.66
2023-01-13T00:08:48.088Z,49.15
2023-01-13T00:09:48.078Z,47.70
2023-01-13T00:10:48.016Z,47.21
2023-01-13T00:11:48.056Z,47.21
2023-01-13T00:12:49.054Z,47.37
2023-01-13T00:13:48.072Z,47.53
2023-01-13T00:14:48.062Z,48.18
2023-01-13T00:15:48.086Z,48.50
2023-01-13T00:16:49.066Z,48.02
2023-01-13T00:17:48.071Z,47.05
2023-01-13T00:18:48.073Z,48.66
2023-01-13T00:19:48.063Z,50.11
2023-01-13T00:20:48.009Z,50.27
2023-01-13T00:21:48.032Z,49.79
2023-01-13T00:22:48.024Z,49.15
2023-01-13T00:23:48.018Z,47.70
2023-01-13T00:24:48.012Z,48.18
2023-01-13T00:25:47.985Z,48.82
2023-01-13T00:26:47.976Z,52.37
2023-01-13T00:27:47.948Z,51.56
2023-01-13T00:28:49.049Z,49.31
2023-01-13T00:29:47.947Z,50.43
2023-01-13T00:30:47.945Z,47.05
2023-01-13T00:31:47.934Z,46.73
2023-01-13T00:32:47.934Z,47.37
2023-01-13T00:33:47.979Z,48.50
2023-01-13T00:34:47.913Z,46.73
2023-01-13T00:35:47.901Z,47.05
2023-01-13T00:36:47.895Z,49.47
2023-01-13T00:37:47.869Z,49.63
2023-01-13T00:38:47.970Z,48.98
2023-01-13T00:39:47.916Z,48.82
2023-01-13T00:40:47.885Z,48.18
2023-01-13T00:41:47.848Z,48.34
2023-01-13T00:42:47.750Z,48.98
2023-01-13T00:43:47.821Z,51.24
2023-01-13T00:44:47.944Z,54.95
2023-01-13T00:45:47.843Z,55.27
2023-01-13T00:46:47.876Z,49.79
2023-01-13T00:47:47.787Z,48.18
2023-01-13T00:48:47.793Z,48.66
2023-01-13T00:49:47.775Z,47.70
2023-01-13T00:50:47.816Z,47.21
2023-01-13T00:51:47.783Z,47.86
2023-01-13T00:52:47.758Z,50.76
2023-01-13T00:53:47.774Z,48.18
2023-01-13T00:54:47.759Z,49.95
2023-01-13T00:55:47.795Z,48.18
2023-01-13T00:56:47.741Z,47.37
2023-01-13T00:57:47.730Z,47.70
2023-01-13T00:58:47.735Z,49.31
2023-01-13T00:59:49.519Z,47.86
2023-01-13T01:00:48.753Z,48.18
2023-01-13T01:01:47.844Z,47.70
2023-01-13T01:02:47.688Z,50.11
2023-01-13T01:03:47.604Z,47.21
2023-01-13T01:04:47.622Z,47.05
2023-01-13T01:05:47.597Z,46.89
2023-01-13T01:06:47.615Z,48.34
2023-01-13T01:07:47.582Z,47.05
2023-01-13T01:08:47.586Z,48.18
2023-01-13T01:09:47.541Z,47.21
2023-01-13T01:10:47.540Z,46.41
2023-01-13T01:11:48.621Z,47.05
2023-01-13T01:12:47.561Z,48.02
2023-01-13T01:13:47.538Z,47.53
2023-01-13T01:14:47.551Z,48.18
2023-01-13T01:15:47.665Z,50.27
2023-01-13T01:16:47.616Z,48.82
2023-01-13T01:17:47.598Z,49.47
2023-01-13T01:18:47.575Z,47.05
2023-01-13T01:19:47.581Z,47.05
2023-01-13T01:20:47.576Z,48.66
2023-01-13T01:21:47.548Z,46.57
2023-01-13T01:22:47.644Z,46.57
2023-01-13T01:23:47.552Z,46.73
2023-01-13T01:24:47.552Z,46.41
2023-01-13T01:25:47.525Z,46.08
2023-01-13T01:26:47.562Z,46.08
2023-01-13T01:27:47.543Z,46.89
2023-01-13T01:28:47.598Z,46.89
2023-01-13T01:29:47.492Z,47.53
2023-01-13T01:30:47.494Z,50.27
2023-01-13T01:31:47.515Z,46.73
2023-01-13T01:32:47.491Z,48.02
2023-01-13T01:33:47.554Z,48.18
2023-01-13T01:34:47.464Z,47.37
2023-01-13T01:35:47.453Z,46.73
2023-01-13T01:36:47.452Z,46.08
2023-01-13T01:37:47.420Z,46.41
2023-01-13T01:38:47.502Z,46.08
2023-01-13T01:39:47.426Z,46.08
2023-01-13T01:40:47.416Z,46.89
2023-01-13T01:41:47.428Z,46.57
2023-01-13T01:42:47.403Z,46.57
2023-01-13T01:43:47.405Z,47.70
2023-01-13T01:44:49.308Z,48.50
2023-01-13T01:45:47.367Z,47.05
2023-01-13T01:46:47.366Z,48.18
2023-01-13T01:47:47.311Z,47.86
2023-01-13T01:48:47.280Z,48.98
2023-01-13T01:49:47.327Z,50.11
2023-01-13T01:50:47.258Z,48.34
2023-01-13T01:51:47.280Z,48.18
2023-01-13T01:52:47.255Z,47.53
2023-01-13T01:53:47.324Z,48.34
2023-01-13T01:54:47.353Z,48.02
2023-01-13T01:55:47.302Z,47.86
2023-01-13T01:56:47.323Z,48.98
2023-01-13T01:57:47.312Z,48.02
2023-01-13T01:58:47.328Z,47.37
2023-01-13T01:59:47.296Z,48.02
2023-01-13T02:00:47.342Z,47.37
2023-01-13T02:01:47.329Z,49.47
2023-01-13T02:02:47.315Z,49.15
2023-01-13T02:03:47.265Z,49.15
2023-01-13T02:04:47.248Z,47.86
2023-01-13T02:05:47.329Z,48.18
2023-01-13T02:06:47.221Z,50.92
2023-01-13T02:07:47.235Z,48.34
2023-01-13T02:08:47.282Z,48.82
2023-01-13T02:09:47.223Z,49.79
2023-01-13T02:10:47.249Z,46.25
2023-01-13T02:11:47.241Z,47.05
2023-01-13T02:12:47.178Z,46.73
2023-01-13T02:13:47.169Z,47.37
2023-01-13T02:14:47.186Z,47.37
2023-01-13T02:15:47.160Z,47.86
2023-01-13T02:16:47.215Z,46.57
2023-01-13T02:17:47.102Z,46.89
2023-01-13T02:18:47.060Z,46.57
2023-01-13T02:19:48.139Z,46.08
2023-01-13T02:20:47.062Z,45.92
2023-01-13T02:21:47.083Z,45.92
2023-01-13T02:22:47.064Z,45.44
2023-01-13T02:23:47.044Z,46.08
2023-01-13T02:24:47.013Z,48.34
2023-01-13T02:25:47.021Z,47.86
2023-01-13T02:26:47.019Z,46.25
2023-01-13T02:27:47.020Z,47.21
2023-01-13T02:28:46.985Z,47.05
2023-01-13T02:29:46.997Z,50.43
2023-01-13T02:30:47.087Z,48.82
2023-01-13T02:31:46.992Z,47.21
2023-01-13T02:32:46.973Z,47.37
2023-01-13T02:33:47.025Z,47.21
2023-01-13T02:34:46.945Z,47.05
2023-01-13T02:35:46.986Z,47.37
2023-01-13T02:36:47.052Z,46.25
2023-01-13T02:37:47.012Z,46.41
2023-01-13T02:38:47.094Z,46.57
2023-01-13T02:39:46.980Z,48.34
2023-01-13T02:40:46.975Z,47.05
2023-01-13T02:41:46.972Z,47.05
2023-01-13T02:42:46.984Z,46.89
2023-01-13T02:43:46.947Z,46.57
2023-01-13T02:44:47.049Z,46.73
2023-01-13T02:45:47.026Z,48.66
2023-01-13T02:46:46.989Z,48.50
2023-01-13T02:47:46.964Z,47.05
2023-01-13T02:48:46.960Z,47.21
2023-01-13T02:49:46.944Z,47.70
2023-01-13T02:50:46.951Z,47.70
2023-01-13T02:51:46.940Z,47.70
2023-01-13T02:52:46.936Z,48.02
2023-01-13T02:53:46.919Z,47.05
2023-01-13T02:54:46.921Z,47.21
2023-01-13T02:55:46.920Z,47.70
2023-01-13T02:56:46.946Z,48.18
2023-01-13T02:57:46.871Z,46.57
2023-01-13T02:58:46.860Z,46.89
2023-01-13T02:59:46.937Z,47.05
2023-01-13T03:00:46.956Z,47.21
2023-01-13T03:01:46.978Z,47.70
2023-01-13T03:02:46.903Z,46.41
2023-01-13T03:03:46.845Z,47.70
2023-01-13T03:04:46.848Z,47.05
2023-01-13T03:05:46.824Z,48.18
2023-01-13T03:06:46.805Z,46.73
2023-01-13T03:07:46.745Z,47.05
2023-01-13T03:08:46.764Z,46.89
2023-01-13T03:09:46.729Z,46.89
2023-01-13T03:10:46.771Z,47.86
2023-01-13T03:11:46.752Z,48.18
2023-01-13T03:12:46.683Z,48.50
2023-01-13T03:13:46.730Z,49.15
2023-01-13T03:14:46.705Z,50.76
2023-01-13T03:15:46.694Z,48.50
2023-01-13T03:16:46.704Z,49.47
2023-01-13T03:17:47.124Z,50.92
2023-01-13T03:18:46.663Z,50.60
2023-01-13T03:19:46.805Z,49.63
2023-01-13T03:20:46.731Z,50.60
2023-01-13T03:21:46.739Z,49.15
2023-01-13T03:22:46.785Z,46.57
2023-01-13T03:23:46.692Z,47.05
2023-01-13T03:24:46.709Z,49.47
2023-01-13T03:25:46.716Z,47.86
2023-01-13T03:26:46.682Z,50.92
2023-01-13T03:27:46.668Z,48.18
2023-01-13T03:28:46.734Z,49.95
2023-01-13T03:29:46.669Z,51.56
2023-01-13T03:30:46.697Z,48.98
2023-01-13T03:31:46.681Z,48.02
2023-01-13T03:32:46.645Z,53.50
2023-01-13T03:33:46.709Z,50.27
2023-01-13T03:34:46.668Z,50.60
2023-01-13T03:35:46.663Z,49.95
2023-01-13T03:36:46.656Z,55.59
2023-01-13T03:37:46.593Z,59.62
2023-01-13T03:38:46.649Z,60.59
2023-01-13T03:39:47.661Z,63.33
2023-01-13T03:40:46.658Z,61.71
2023-01-13T03:41:46.598Z,62.04
2023-01-13T03:42:46.585Z,61.55
2023-01-13T03:43:46.588Z,61.39
2023-01-13T03:44:46.592Z,61.23
2023-01-13T03:45:46.583Z,57.85
2023-01-13T03:46:46.589Z,57.04
2023-01-13T03:47:46.593Z,49.95
2023-01-13T03:48:46.537Z,50.76
2023-01-13T03:49:46.535Z,51.40
2023-01-13T03:50:46.582Z,53.01
2023-01-13T03:51:46.547Z,52.05
2023-01-13T03:52:46.559Z,50.11
2023-01-13T03:53:46.531Z,53.01
2023-01-13T03:54:46.512Z,51.72
2023-01-13T03:55:46.605Z,50.11
2023-01-13T03:56:46.501Z,50.92
2023-01-13T03:57:46.523Z,56.07
2023-01-13T03:58:46.456Z,54.46
2023-01-13T03:59:46.477Z,58.01
2023-01-13T04:00:46.455Z,49.95
2023-01-13T04:01:46.546Z,50.11
2023-01-13T04:02:46.369Z,54.14
2023-01-13T04:03:46.377Z,52.21
2023-01-13T04:04:46.335Z,52.21
2023-01-13T04:05:46.323Z,55.75
2023-01-13T04:06:46.397Z,52.53
2023-01-13T04:07:46.290Z,54.62
2023-01-13T04:08:46.297Z,52.85
2023-01-13T04:09:46.324Z,51.56
2023-01-13T04:10:46.287Z,55.27
2023-01-13T04:11:46.309Z,51.72
2023-01-13T04:12:46.324Z,52.37
2023-01-13T04:13:46.284Z,58.01
2023-01-13T04:14:46.246Z,53.82
2023-01-13T04:15:46.287Z,53.17
2023-01-13T04:16:46.325Z,55.59
2023-01-13T04:17:46.411Z,53.50
2023-01-13T04:18:46.353Z,50.92
2023-01-13T04:19:46.306Z,50.43
2023-01-13T04:20:46.332Z,50.92
2023-01-13T04:21:46.307Z,55.91
2023-01-13T04:22:46.353Z,53.98
2023-01-13T04:23:46.337Z,53.66
2023-01-13T04:24:46.323Z,54.14
2023-01-13T04:25:46.269Z,56.40
2023-01-13T04:26:46.159Z,54.79
2023-01-13T04:27:46.235Z,58.33
2023-01-13T04:28:46.298Z,58.65
2023-01-13T04:29:46.236Z,56.07
2023-01-13T04:30:46.345Z,55.91
2023-01-13T04:31:46.234Z,57.52
2023-01-13T04:32:46.220Z,56.24
2023-01-13T04:33:46.222Z,58.65
2023-01-13T04:34:46.252Z,56.72
2023-01-13T04:35:46.203Z,60.10
2023-01-13T04:36:46.211Z,58.97
2023-01-13T04:37:46.192Z,57.36
2023-01-13T04:38:46.177Z,58.49
2023-01-13T04:39:46.185Z,58.33
2023-01-13T04:40:46.187Z,57.20
2023-01-13T04:41:46.199Z,54.95
2023-01-13T04:42:46.188Z,54.46
2023-01-13T04:43:46.211Z,56.56
2023-01-13T04:44:46.133Z,57.04
2023-01-13T04:45:46.211Z,56.56
2023-01-13T04:46:46.100Z,56.07
2023-01-13T04:47:46.107Z,54.30
2023-01-13T04:48:46.092Z,52.69
2023-01-13T04:49:46.092Z,54.62
2023-01-13T04:50:46.134Z,58.49
2023-01-13T04:51:46.079Z,53.98
2023-01-13T04:52:46.107Z,51.24
2023-01-13T04:53:46.037Z,54.95
2023-01-13T04:54:46.048Z,55.75
2023-01-13T04:55:46.055Z,55.11
2023-01-13T04:56:46.115Z,56.56
2023-01-13T04:57:46.050Z,56.07
2023-01-13T04:58:46.040Z,56.07
2023-01-13T04:59:46.028Z,57.04
2023-01-13T05:00:46.086Z,55.91
2023-01-13T05:01:46.247Z,59.30
2023-01-13T05:02:46.039Z,58.81
2023-01-13T05:03:45.985Z,54.95
2023-01-13T05:04:46.145Z,56.56
2023-01-13T05:05:45.984Z,54.14
2023-01-13T05:06:46.018Z,53.98
2023-01-13T05:07:46.031Z,53.50
2023-01-13T05:08:46.038Z,53.50
2023-01-13T05:09:45.986Z,53.17
2023-01-13T05:10:46.296Z,53.01
2023-01-13T05:11:45.877Z,53.82
2023-01-13T05:12:45.876Z,53.82
2023-01-13T05:13:45.867Z,53.33
2023-01-13T05:14:45.886Z,53.33
2023-01-13T05:15:45.884Z,52.53
2023-01-13T05:16:45.792Z,54.46
2023-01-13T05:17:45.842Z,52.05
2023-01-13T05:18:46.125Z,53.66
2023-01-13T05:19:45.899Z,53.66
2023-01-13T05:20:45.851Z,56.24
2023-01-13T05:21:46.796Z,53.82
2023-01-13T05:22:45.846Z,54.95
2023-01-13T05:23:45.889Z,53.01
2023-01-13T05:24:45.853Z,53.01
2023-01-13T05:25:45.755Z,54.62
2023-01-13T05:26:45.828Z,54.46
2023-01-13T05:27:45.923Z,52.37
2023-01-13T05:28:45.885Z,53.33
2023-01-13T05:29:45.931Z,54.30
2023-01-13T05:30:45.815Z,55.43
2023-01-13T05:31:45.877Z,56.07
2023-01-13T05:32:45.815Z,53.66
2023-01-13T05:33:45.883Z,54.79
2023-01-13T05:34:45.821Z,56.72
2023-01-13T05:35:45.803Z,56.88
2023-01-13T05:36:45.785Z,53.50
2023-01-13T05:37:45.770Z,54.14
2023-01-13T05:38:45.783Z,57.36
2023-01-13T05:39:45.805Z,58.81
2023-01-13T05:40:45.804Z,58.49
2023-01-13T05:41:45.734Z,58.81
2023-01-13T05:42:45.738Z,59.14
2023-01-13T05:43:45.755Z,57.36
2023-01-13T05:44:45.725Z,56.88
2023-01-13T05:45:45.735Z,57.04
2023-01-13T05:46:45.747Z,58.49
2023-01-13T05:47:45.611Z,55.27
2023-01-13T05:48:45.649Z,56.72
2023-01-13T05:49:45.619Z,55.11
2023-01-13T05:50:45.567Z,56.56
2023-01-13T05:51:45.630Z,56.56
2023-01-13T05:52:45.570Z,53.01
2023-01-13T05:53:45.579Z,51.88
2023-01-13T05:54:45.567Z,55.11
2023-01-13T05:55:45.569Z,53.17
2023-01-13T05:56:45.586Z,55.11
2023-01-13T05:57:45.571Z,57.36
2023-01-13T05:58:45.587Z,56.88
2023-01-13T05:59:45.531Z,56.07
2023-01-13T06:00:45.541Z,54.79
2023-01-13T06:01:45.501Z,56.24
2023-01-13T06:02:45.634Z,57.04
2023-01-13T06:03:45.501Z,56.24
2023-01-13T06:04:45.529Z,56.24
2023-01-13T06:05:45.544Z,56.56
2023-01-13T06:06:45.552Z,57.69
2023-01-13T06:07:45.639Z,58.49
2023-01-13T06:08:45.600Z,56.72
2023-01-13T06:09:45.539Z,56.88
2023-01-13T06:10:45.445Z,58.17
2023-01-13T06:11:45.556Z,54.46
2023-01-13T06:12:45.557Z,54.46
2023-01-13T06:13:45.574Z,53.98
2023-01-13T06:14:45.530Z,57.69
2023-01-13T06:15:45.598Z,55.43
2023-01-13T06:16:45.501Z,56.40
2023-01-13T06:17:45.590Z,55.27
2023-01-13T06:18:45.730Z,55.11
2023-01-13T06:19:45.580Z,53.50
2023-01-13T06:22:53.367Z,55.91
2023-01-13T06:23:53.372Z,57.52
2023-01-13T06:24:53.254Z,57.85
2023-01-13T06:25:53.330Z,57.20
2023-01-13T06:26:53.396Z,56.88
2023-01-13T06:27:53.318Z,56.24
2023-01-13T06:28:53.325Z,57.69
2023-01-13T06:29:53.253Z,57.20
2023-01-13T06:30:53.260Z,55.43
2023-01-13T06:31:53.310Z,52.69
2023-01-13T06:32:53.249Z,56.07
2023-01-13T06:33:53.290Z,55.75
2023-01-13T06:34:53.281Z,55.91
2023-01-13T06:35:53.268Z,55.27
2023-01-13T06:36:53.247Z,56.24
2023-01-13T06:37:53.227Z,53.33
2023-01-13T06:38:53.239Z,54.62
2023-01-13T06:39:53.275Z,54.62
2023-01-13T06:40:53.196Z,55.59
2023-01-13T06:41:53.183Z,53.98
2023-01-13T06:42:53.228Z,55.59
2023-01-13T06:43:53.236Z,56.24
2023-01-13T06:44:53.192Z,54.14
2023-01-13T06:45:53.284Z,55.91
2023-01-13T06:46:53.247Z,56.72
2023-01-13T06:47:53.229Z,56.07
2023-01-13T06:48:53.138Z,54.30
2023-01-13T06:49:53.146Z,54.46
2023-01-13T06:50:53.162Z,52.85
2023-01-13T06:51:53.137Z,53.98
2023-01-13T06:52:53.148Z,55.27
2023-01-13T06:53:53.117Z,54.62
2023-01-13T06:54:53.144Z,53.98
2023-01-13T06:55:53.014Z,53.66
2023-01-13T06:56:53.094Z,55.43
2023-01-13T06:57:53.009Z,56.07
2023-01-13T06:58:52.976Z,54.46
2023-01-13T06:59:52.996Z,53.50
2023-01-13T07:00:53.093Z,52.53
2023-01-13T07:01:53.161Z,52.53
2023-01-13T07:02:53.035Z,52.69
2023-01-13T07:03:52.979Z,53.66
2023-01-13T07:04:52.938Z,52.69
2023-01-13T07:05:52.958Z,53.82
2023-01-13T07:06:52.928Z,55.75
2023-01-13T07:07:53.090Z,54.79
2023-01-13T07:08:52.950Z,54.62
2023-01-13T07:09:52.926Z,55.59
2023-01-13T07:10:52.939Z,54.79
2023-01-13T07:12:25.167Z,55.11
2023-01-13T07:13:24.891Z,55.43
2023-01-13T07:13:52.965Z,57.04
2023-01-13T07:14:52.959Z,55.75
2023-01-13T07:15:53.021Z,54.14
2023-01-13T07:16:52.962Z,54.62
2023-01-13T07:17:52.949Z,55.11
2023-01-13T07:18:53.176Z,53.50
2023-01-13T07:19:53.004Z,53.01
2023-01-13T07:20:52.927Z,55.11
2023-01-13T07:21:52.933Z,52.53
2023-01-13T07:22:52.924Z,53.66
2023-01-13T07:23:52.964Z,53.01
2023-01-13T07:24:52.911Z,52.05
2023-01-13T07:25:52.890Z,53.50
2023-01-13T07:26:52.886Z,55.75
2023-01-13T07:27:53.900Z,55.27
2023-01-13T07:28:52.868Z,53.98
2023-01-13T07:29:52.958Z,52.85
2023-01-13T07:30:52.956Z,53.17
2023-01-13T07:31:52.991Z,54.95
2023-01-13T07:32:52.822Z,55.11
2023-01-13T07:33:52.932Z,53.66
2023-01-13T07:34:52.877Z,54.46
2023-01-13T07:35:52.826Z,52.05
2023-01-13T07:36:52.817Z,53.98
2023-01-13T07:37:52.798Z,53.17
2023-01-13T07:38:54.848Z,53.98
2023-01-13T07:39:53.817Z,53.50
2023-01-13T07:40:52.697Z,55.91
2023-01-13T07:41:52.710Z,57.85
2023-01-13T07:42:52.669Z,57.04
2023-01-13T07:43:53.697Z,53.98
2023-01-13T07:44:52.693Z,52.85
2023-01-13T07:45:52.713Z,54.95
2023-01-13T07:46:52.633Z,56.07
2023-01-13T07:47:52.784Z,54.95
2023-01-13T07:48:52.726Z,54.14
2023-01-13T07:49:52.745Z,55.27
2023-01-13T07:50:52.815Z,53.01
2023-01-13T07:51:52.737Z,53.17
2023-01-13T07:52:52.735Z,56.07
2023-01-13T07:53:52.721Z,54.95
2023-01-13T07:54:52.787Z,54.79
2023-01-13T07:55:52.686Z,53.98
2023-01-13T07:56:52.806Z,54.46
2023-01-13T07:57:52.668Z,54.30
2023-01-13T07:58:52.723Z,55.43
2023-01-13T07:59:52.709Z,54.30
2023-01-13T08:00:52.797Z,53.82
2023-01-13T08:01:52.896Z,52.85
2023-01-13T08:02:52.736Z,52.69
2023-01-13T08:03:52.660Z,53.01
2023-01-13T08:04:52.733Z,52.85
2023-01-13T08:05:52.679Z,52.53
2023-01-13T08:06:52.649Z,53.66
2023-01-13T08:07:52.611Z,53.66
2023-01-13T08:08:52.616Z,53.66
2023-01-13T08:09:52.570Z,52.53
2023-01-13T08:10:52.555Z,54.46
2023-01-13T08:11:52.598Z,54.30
2023-01-13T08:12:57.014Z,53.82
2023-01-13T08:13:52.640Z,54.30
2023-01-13T08:14:52.560Z,53.33
2023-01-13T08:15:52.616Z,54.95
2023-01-13T08:16:52.622Z,53.33
2023-01-13T08:17:52.691Z,53.33
2023-01-13T08:18:52.562Z,53.66
2023-01-13T08:19:52.641Z,53.01
2023-01-13T08:20:52.642Z,52.05
2023-01-13T08:21:52.478Z,53.17
2023-01-13T08:22:52.533Z,51.72
2023-01-13T08:23:52.773Z,53.50
2023-01-13T08:24:52.627Z,53.33
2023-01-13T08:25:52.490Z,53.66
2023-01-13T08:26:52.473Z,52.05
2023-01-13T08:27:52.491Z,54.30
2023-01-13T08:28:52.505Z,53.50
2023-01-13T08:29:52.478Z,53.33
2023-01-13T08:30:52.486Z,53.66
2023-01-13T08:31:52.488Z,53.01
2023-01-13T08:32:52.668Z,53.01
2023-01-13T08:33:52.405Z,53.50
2023-01-13T08:34:52.485Z,51.40
2023-01-13T08:35:52.410Z,50.92
2023-01-13T08:36:52.541Z,53.33
2023-01-13T08:37:52.437Z,53.33
2023-01-13T08:38:52.445Z,53.50
2023-01-13T08:39:52.475Z,53.17
2023-01-13T08:40:52.529Z,51.40
2023-01-13T08:41:52.402Z,52.53
2023-01-13T08:42:52.506Z,51.72
2023-01-13T08:43:52.420Z,51.88
2023-01-13T08:44:52.367Z,53.01
2023-01-13T08:45:52.337Z,53.50
2023-01-13T08:46:52.283Z,52.37
2023-01-13T08:47:52.237Z,53.01
2023-01-13T08:48:52.275Z,51.88
2023-01-13T08:49:52.241Z,51.08
2023-01-13T08:50:52.274Z,52.69
2023-01-13T08:51:52.218Z,52.85
2023-01-13T08:52:52.213Z,52.53
2023-01-13T08:53:52.211Z,53.50
2023-01-13T08:54:52.218Z,51.40
2023-01-13T08:55:52.237Z,53.01
2023-01-13T08:56:52.447Z,52.21
2023-01-13T08:57:54.447Z,53.33
2023-01-13T08:58:52.305Z,54.95
2023-01-13T08:59:52.175Z,52.85
2023-01-13T09:00:52.330Z,52.37
2023-01-13T09:01:52.323Z,50.92
2023-01-13T09:02:52.222Z,50.76
2023-01-13T09:03:52.399Z,51.24
2023-01-13T09:04:52.273Z,52.37
2023-01-13T09:05:52.314Z,51.72
2023-01-13T09:06:52.293Z,51.40
2023-01-13T09:07:52.231Z,51.72
2023-01-13T09:08:52.272Z,53.17
2023-01-13T09:09:52.229Z,51.24
2023-01-13T09:10:52.092Z,52.05
2023-01-13T09:11:52.194Z,52.85
2023-01-13T09:12:52.258Z,53.01
2023-01-13T09:13:52.152Z,55.43
2023-01-13T09:14:52.138Z,51.88
2023-01-13T09:15:52.172Z,51.08
2023-01-13T09:16:52.182Z,53.01
2023-01-13T09:17:52.184Z,54.95
2023-01-13T09:18:52.162Z,53.66
2023-01-13T09:19:52.125Z,51.88
2023-01-13T09:20:52.142Z,52.21
2023-01-13T09:21:52.145Z,53.98
2023-01-13T09:22:52.151Z,52.37
2023-01-13T09:23:53.145Z,52.85
2023-01-13T09:24:52.117Z,53.98
2023-01-13T09:25:52.091Z,53.66
2023-01-13T09:26:52.125Z,50.92
2023-01-13T09:27:52.064Z,50.92
2023-01-13T09:28:52.184Z,51.88
2023-01-13T09:29:52.042Z,52.85
2023-01-13T09:30:52.186Z,55.27
2023-01-13T09:31:52.092Z,53.33
2023-01-13T09:32:52.020Z,53.66
2023-01-13T09:33:52.134Z,52.05
2023-01-13T09:34:52.173Z,50.92
2023-01-13T09:35:52.020Z,53.33
2023-01-13T09:36:52.002Z,53.66
2023-01-13T09:37:51.993Z,54.46
2023-01-13T09:38:51.991Z,55.43
2023-01-13T09:39:52.015Z,53.17
2023-01-13T09:40:52.040Z,52.05
2023-01-13T09:41:52.013Z,54.46
2023-01-13T09:42:51.962Z,53.82
2023-01-13T09:43:52.011Z,52.85
2023-01-13T09:44:51.938Z,52.05
2023-01-13T09:45:52.036Z,51.08
2023-01-13T09:46:51.934Z,52.05
2023-01-13T09:47:51.971Z,54.30
2023-01-13T09:48:52.317Z,56.07
2023-01-13T09:49:51.937Z,55.91
2023-01-13T09:50:51.944Z,55.27
2023-01-13T09:51:51.894Z,53.66
2023-01-13T09:52:51.892Z,53.33
2023-01-13T09:53:51.906Z,52.05
2023-01-13T09:55:09.066Z,53.50
2023-01-13T09:55:52.823Z,53.50
2023-01-13T09:56:51.833Z,54.62
2023-01-13T09:57:51.854Z,50.92
2023-01-13T09:58:51.764Z,55.27
2023-01-13T09:59:51.776Z,51.40
2023-01-13T10:00:51.755Z,52.21
2023-01-13T10:01:51.768Z,51.88
2023-01-13T10:02:51.716Z,53.50
2023-01-13T10:03:51.773Z,55.27
2023-01-13T10:04:51.730Z,53.17
2023-01-13T10:05:51.725Z,52.05
2023-01-13T10:06:51.747Z,53.33
2023-01-13T10:07:51.700Z,52.69
2023-01-13T10:08:51.712Z,52.21
2023-01-13T10:09:51.657Z,52.05
2023-01-13T10:10:51.670Z,54.46
2023-01-13T10:11:51.717Z,55.43
2023-01-13T10:12:51.721Z,53.66
2023-01-13T10:13:51.671Z,56.72
2023-01-13T10:14:51.747Z,54.95
2023-01-13T10:15:51.749Z,53.50
2023-01-13T10:16:51.741Z,54.30
2023-01-13T10:17:51.753Z,53.98
2023-01-13T10:18:51.693Z,53.98
2023-01-13T10:19:51.701Z,55.27
2023-01-13T10:20:51.723Z,53.01
2023-01-13T10:21:51.699Z,55.27
2023-01-13T10:22:51.667Z,53.82
2023-01-13T10:23:51.722Z,54.30
2023-01-13T10:24:51.684Z,54.46
2023-01-13T10:25:51.769Z,55.27
2023-01-13T10:26:51.638Z,54.95
2023-01-13T10:27:51.781Z,53.01
2023-01-13T10:28:51.943Z,54.62
2023-01-13T10:29:51.652Z,53.82
2023-01-13T10:30:51.672Z,54.30
2023-01-13T10:31:51.686Z,55.91
2023-01-13T10:32:51.592Z,54.46
2023-01-13T10:33:51.647Z,53.50
2023-01-13T10:34:51.659Z,52.37
2023-01-13T10:35:51.678Z,54.62
2023-01-13T10:36:51.585Z,56.72
2023-01-13T10:37:51.614Z,54.14
2023-01-13T10:38:51.608Z,54.14
2023-01-13T10:43:44.683Z,52.85
2023-01-13T10:45:16.968Z,54.14
2023-01-13T10:53:09.051Z,55.27
2023-01-13T10:54:08.997Z,57.69
2023-01-13T10:55:08.955Z,54.95
2023-01-13T10:56:08.976Z,53.01
2023-01-13T11:00:40.411Z,53.50
2023-01-13T11:01:40.269Z,51.72
2023-01-13T11:07:06.231Z,51.40
2023-01-13T11:08:06.153Z,52.85
2023-01-13T11:09:06.270Z,53.50
2023-01-13T11:10:06.142Z,56.07
2023-01-13T11:11:06.240Z,51.40
2023-01-13T11:12:06.145Z,50.43
2023-01-13T11:13:06.205Z,52.21
2023-01-13T11:14:08.491Z,51.40
2023-01-13T11:15:06.140Z,53.50
2023-01-13T11:16:06.189Z,55.91
2023-01-13T11:17:06.161Z,56.40
2023-01-13T11:18:06.103Z,55.91
2023-01-13T11:19:06.119Z,56.72
2023-01-13T11:20:06.113Z,53.98
2023-01-13T11:21:06.090Z,54.46
2023-01-13T11:22:06.088Z,53.01
2023-01-13T11:23:06.550Z,53.98
2023-01-13T11:24:06.033Z,54.95
2023-01-13T11:25:06.052Z,55.27
2023-01-13T11:26:06.030Z,55.11
2023-01-13T11:27:06.051Z,55.27
2023-01-13T11:28:06.048Z,52.53
2023-01-13T11:29:06.004Z,54.95
2023-01-13T11:33:04.667Z,55.11
2023-01-13T11:34:04.446Z,55.43
2023-01-13T11:35:04.444Z,54.95
2023-01-13T11:36:04.432Z,55.27
2023-01-13T11:37:04.400Z,53.66
2023-01-13T11:38:04.630Z,54.14
2023-01-13T11:39:04.429Z,57.52
2023-01-13T11:40:04.444Z,53.01
2023-01-13T11:41:04.412Z,51.88
2023-01-13T11:42:04.301Z,55.91
2023-01-13T11:43:04.316Z,55.43
2023-01-13T11:44:04.306Z,56.07
2023-01-13T11:45:04.281Z,54.46
2023-01-13T11:46:04.302Z,53.50
2023-01-13T11:47:04.296Z,55.27
2023-01-13T11:48:04.246Z,55.59
2023-01-13T11:49:04.264Z,54.46
2023-01-13T11:50:04.299Z,56.40
2023-01-13T11:51:04.235Z,59.14
2023-01-13T11:52:36.269Z,56.72
2023-01-13T11:53:04.205Z,57.52
2023-01-13T11:54:04.271Z,55.27
2023-01-13T11:55:04.247Z,57.20
2023-01-13T11:56:04.203Z,55.11
2023-01-13T11:57:05.156Z,55.43
2023-01-13T11:58:04.179Z,55.43
2023-01-13T11:59:04.166Z,56.24
2023-01-13T12:00:04.284Z,54.79
2023-01-13T12:01:04.290Z,54.95
2023-01-13T12:02:04.312Z,57.04
2023-01-13T12:03:04.290Z,55.59
2023-01-13T12:04:04.218Z,55.91
2023-01-13T12:05:04.295Z,56.56
2023-01-13T12:06:04.234Z,58.49
2023-01-13T12:07:04.219Z,59.46
2023-01-13T12:08:04.191Z,56.72
2023-01-13T12:09:04.199Z,55.75
2023-01-13T12:10:05.086Z,56.07
2023-01-13T12:11:04.173Z,55.91
2023-01-13T12:12:04.163Z,56.88
2023-01-13T12:13:04.159Z,58.97
2023-01-13T12:14:04.177Z,54.79
2023-01-13T12:15:04.149Z,55.59
2023-01-13T12:16:04.201Z,53.17
2023-01-13T12:17:04.237Z,57.36
2023-01-13T12:18:04.255Z,56.88
2023-01-13T12:19:04.214Z,56.56
2023-01-13T12:20:04.127Z,57.69
2023-01-13T12:21:04.209Z,57.69
2023-01-13T12:22:04.141Z,53.98
2023-01-13T12:23:04.136Z,54.79
2023-01-13T12:24:04.158Z,55.43
2023-01-13T12:25:04.159Z,56.56
2023-01-13T12:26:04.212Z,56.56
2023-01-13T12:27:04.253Z,56.07
2023-01-13T12:28:04.176Z,56.56
2023-01-13T12:29:04.209Z,57.04
2023-01-13T12:30:04.148Z,56.56
2023-01-13T12:31:04.163Z,55.91
2023-01-13T12:32:04.089Z,57.04
2023-01-13T12:33:04.057Z,57.36
2023-01-13T12:34:04.034Z,57.04
2023-01-13T12:35:04.003Z,57.36
2023-01-13T12:36:03.918Z,57.69
2023-01-13T12:37:03.905Z,56.07
2023-01-13T12:38:04.344Z,57.69
2023-01-13T12:39:03.923Z,57.69
2023-01-13T12:40:03.911Z,56.24
2023-01-13T12:41:03.886Z,56.07
2023-01-13T12:42:03.882Z,57.20
2023-01-13T12:43:03.895Z,57.69
2023-01-13T12:44:03.930Z,57.69
2023-01-13T12:45:03.879Z,57.52
2023-01-13T12:46:03.891Z,57.85
2023-01-13T12:47:03.863Z,58.65
2023-01-13T12:48:03.827Z,57.69
2023-01-13T12:49:04.035Z,57.52
2023-01-13T12:50:03.874Z,56.56
2023-01-13T12:51:03.993Z,56.56
2023-01-13T12:52:03.926Z,56.56
2023-01-13T12:53:03.941Z,54.46
2023-01-13T12:54:03.856Z,53.01
2023-01-13T12:55:03.907Z,58.81
2023-01-13T12:56:03.919Z,57.69
2023-01-13T12:58:59.428Z,56.72
2023-01-13T12:59:59.229Z,56.72
2023-01-13T14:17:36.778Z,57.52
2023-01-13T14:28:12.515Z,59.46
2023-01-13T14:29:11.410Z,59.46
2023-01-13T14:33:04.524Z,56.56
2023-01-13T14:34:31.365Z,58.81
2023-01-13T14:35:04.413Z,57.04
2023-01-13T14:36:03.297Z,54.95
2023-01-13T14:37:03.632Z,53.01
2023-01-13T14:38:03.194Z,54.79
2023-01-13T14:39:03.513Z,55.75
2023-01-13T14:40:03.560Z,54.62
2023-01-13T14:41:03.155Z,54.62
2023-01-13T14:42:04.610Z,54.95
2023-01-13T14:43:03.209Z,58.17
2023-01-13T14:44:04.266Z,58.49
2023-01-13T14:45:03.828Z,57.85
2023-01-13T14:46:03.215Z,57.69
2023-01-13T14:47:03.393Z,58.81
2023-01-13T14:48:03.270Z,57.20